Polebridge, Montana
Current Conditions -  °F | °C
As of 3:55 PM on Wednesday 17 Dec 2014 (Local Time) from KGPI Reporting Station
Few Clouds Few Clouds  
Wind Chill: 34°   Ceiling: Unl
Heat Index: 34°   Visibility: 10mi
Dew Point: 25°   Wind: 0mph
Humidity: 70%   Direction: NA
Pressure: 29.93"   Gusts: NA
Location:  48.77°N, 114.29°W
Report Text: KGPI 172255Z 00000KT 10SM FEW070 01/M04 A2993 RMK AO2 SLP163 T00111039 $
Loading
Personal Weather Stations






























Interactive Weather Map New forecast layout! Learn more

10-Day Weather Forecast

Advertisements
Track Severe Weather on mobile